Arcadia Highway — 3FQT4 — position and weather

sailwx.info

Track history (hours):
 
Tides and Currents Weather Stations Pressure Air Temp Water Temp Dewpoint Dewpoint Depression Visibility Wind Speed Wind Dir Waves Ship Positions

Arcadia Highway

Last reported at 2017-Sep-29 21:49 UTC. Time now 2017-Oct-18 13:27 UTC.
Position N 01°12' E 103°34'.
Warning: this ship's position is 18 days out of date.

Length 179 m; draft 8.5 m.

Type: Cargo ship. MMSI: 354342000.

Date/timePositionNaut miles runAvg speedWind from/ knotsBaromVisibWave heightAir tempDewpointWater temp
2017-Sep-29 21:49N 01°12' E 103°34'2 4.4
2017-Sep-29 21:27N 01°12' E 103°36'2 4.2
2017-Sep-29 20:52N 01°11' E 103°38'2 4.0
2017-Sep-29 20:26N 01°11' E 103°40'4 3.9
2017-Sep-29 19:28N 01°09' E 103°43'2 3.4
2017-Sep-29 18:52N 01°09' E 103°45'1 3.5
2017-Sep-29 18:30N 01°10' E 103°47'2 3.8
2017-Sep-29 18:00N 01°11' E 103°48'11 4.8
2017-Sep-29 15:43N 01°17' E 103°57'0 0.0
2017-Sep-29 15:18N 01°17' E 103°57'0 0.0
2017-Sep-29 13:39N 01°17' E 103°57'0 0.0
2017-Sep-29 13:26N 01°17' E 103°57'3716.4
2017-Sep-29 11:11N 01°18' E 103°20'317.8
2017-Sep-29 11:00N 01°16' E 103°23'917.3
2017-Sep-29 10:30N 01°13' E 103°30'917.3
2017-Sep-29 10:01N 01°11' E 103°39'713.8
2017-Sep-29 09:30N 01°09' E 103°46'713.7
2017-Sep-29 09:00N 01°12' E 103°52'510.2
2017-Sep-29 08:30N 01°15' E 103°56'2 4.4
2017-Sep-29 08:00N 01°17' E 103°57'0 0.1
2017-Sep-29 07:28N 01°17' E 103°57'0 0.0
2017-Sep-29 06:49N 01°17' E 103°57'0 0.0
2017-Sep-29 06:16N 01°17' E 103°57'0 0.2
2017-Sep-29 05:52N 01°17' E 103°57'0 0.2
2017-Sep-29 05:28N 01°17' E 103°57'0 0.0
2017-Sep-29 04:52N 01°17' E 103°57'0 0.0
2017-Sep-29 04:28N 01°17' E 103°57'0 0.0
2017-Sep-29 03:46N 01°17' E 103°57'0 0.0
2017-Sep-29 03:19N 01°17' E 103°57'0 0.0
2017-Sep-29 02:58N 01°17' E 103°57'0 0.0
2017-Sep-29 02:13N 01°17' E 103°57'0 0.2
2017-Sep-29 01:58N 01°17' E 103°57'0 0.1
2017-Sep-29 01:28N 01°17' E 103°57'0 0.2
2017-Sep-29 00:58N 01°17' E 103°57'0 0.0
2017-Sep-29 00:28N 01°17' E 103°57'0 0.0
2017-Sep-28 23:58N 01°17' E 103°57'0 0.0
2017-Sep-28 23:19N 01°17' E 103°57'0 0.1
2017-Sep-28 23:00N 01°17' E 103°57'2 4.1
2017-Sep-28 22:30N 01°16' E 103°58'4 7.5
2017-Sep-28 21:58N 01°16' E 104°02'  
Track history (hours):
 
Tides and Currents Weather Stations Pressure Air Temp Water Temp Dewpoint Dewpoint Depression Visibility Wind Speed Wind Dir Waves Ship Positions

Arcadia Highway

Last reported at 2017-Sep-29 21:49 UTC. Time now 2017-Oct-18 13:27 UTC.
Position N 01°12' E 103°34'.
Warning: this ship's position is 18 days out of date.

Length 179 m; draft 8.5 m.

Type: Cargo ship. MMSI: 354342000.

Date/timePositionNaut miles runAvg speedWind from/ knotsBaromVisibWave heightAir tempDewpointWater temp
2017-Sep-29 21:49N 01°12' E 103°34'2 4.4
2017-Sep-29 21:27N 01°12' E 103°36'2 4.2
2017-Sep-29 20:52N 01°11' E 103°38'2 4.0
2017-Sep-29 20:26N 01°11' E 103°40'4 3.9
2017-Sep-29 19:28N 01°09' E 103°43'2 3.4
2017-Sep-29 18:52N 01°09' E 103°45'1 3.5
2017-Sep-29 18:30N 01°10' E 103°47'2 3.8
2017-Sep-29 18:00N 01°11' E 103°48'11 4.8
2017-Sep-29 15:43N 01°17' E 103°57'0 0.0
2017-Sep-29 15:18N 01°17' E 103°57'0 0.0
2017-Sep-29 13:39N 01°17' E 103°57'0 0.0
2017-Sep-29 13:26N 01°17' E 103°57'3716.4
2017-Sep-29 11:11N 01°18' E 103°20'317.8
2017-Sep-29 11:00N 01°16' E 103°23'917.3
2017-Sep-29 10:30N 01°13' E 103°30'917.3
2017-Sep-29 10:01N 01°11' E 103°39'713.8
2017-Sep-29 09:30N 01°09' E 103°46'713.7
2017-Sep-29 09:00N 01°12' E 103°52'510.2
2017-Sep-29 08:30N 01°15' E 103°56'2 4.4
2017-Sep-29 08:00N 01°17' E 103°57'0 0.1
2017-Sep-29 07:28N 01°17' E 103°57'0 0.0
2017-Sep-29 06:49N 01°17' E 103°57'0 0.0
2017-Sep-29 06:16N 01°17' E 103°57'0 0.2
2017-Sep-29 05:52N 01°17' E 103°57'0 0.2
2017-Sep-29 05:28N 01°17' E 103°57'0 0.0
2017-Sep-29 04:52N 01°17' E 103°57'0 0.0
2017-Sep-29 04:28N 01°17' E 103°57'0 0.0
2017-Sep-29 03:46N 01°17' E 103°57'0 0.0
2017-Sep-29 03:19N 01°17' E 103°57'0 0.0
2017-Sep-29 02:58N 01°17' E 103°57'0 0.0
2017-Sep-29 02:13N 01°17' E 103°57'0 0.2
2017-Sep-29 01:58N 01°17' E 103°57'0 0.1
2017-Sep-29 01:28N 01°17' E 103°57'0 0.2
2017-Sep-29 00:58N 01°17' E 103°57'0 0.0
2017-Sep-29 00:28N 01°17' E 103°57'0 0.0
2017-Sep-28 23:58N 01°17' E 103°57'0 0.0
2017-Sep-28 23:19N 01°17' E 103°57'0 0.1
2017-Sep-28 23:00N 01°17' E 103°57'2 4.1
2017-Sep-28 22:30N 01°16' E 103°58'4 7.5
2017-Sep-28 21:58N 01°16' E 104°02'  

Dump ship's entire track history